createdAt,value
2019-03-27T00:01:58.500Z,11.00
2019-03-27T00:04:29.016Z,10.83
2019-03-27T00:06:59.659Z,10.90
2019-03-27T00:09:30.360Z,11.07
2019-03-27T00:12:01.032Z,11.30
2019-03-27T00:14:32.230Z,11.53
2019-03-27T00:17:02.856Z,10.33
2019-03-27T00:19:33.227Z,11.90
2019-03-27T00:22:03.920Z,10.77
2019-03-27T00:24:34.143Z,12.20
2019-03-27T00:27:04.698Z,9.87
2019-03-27T00:29:35.453Z,10.80
2019-03-27T00:32:05.843Z,12.60
2019-03-27T00:34:36.176Z,11.03
2019-03-27T00:37:07.172Z,10.70
2019-03-27T00:39:37.457Z,11.47
2019-03-27T00:42:07.843Z,11.50
2019-03-27T00:44:38.168Z,10.37
2019-03-27T00:47:08.705Z,11.03
2019-03-27T00:49:39.111Z,11.37
2019-03-27T00:52:09.954Z,11.47
2019-03-27T00:54:40.305Z,11.20
2019-03-27T00:57:11.127Z,11.73
2019-03-27T00:59:41.573Z,11.60
2019-03-27T01:02:12.335Z,11.53
2019-03-27T01:04:42.992Z,11.00
2019-03-27T01:07:13.450Z,10.73
2019-03-27T01:09:44.184Z,11.90
2019-03-27T01:12:14.579Z,12.90
2019-03-27T01:14:44.942Z,11.37
2019-03-27T01:17:15.443Z,13.00
2019-03-27T01:19:46.099Z,12.80
2019-03-27T01:22:16.697Z,12.33
2019-03-27T01:24:47.478Z,13.50
2019-03-27T01:27:17.726Z,12.73
2019-03-27T01:29:48.121Z,13.23
2019-03-27T01:32:18.531Z,12.73
2019-03-27T01:34:49.440Z,13.00
2019-03-27T01:37:19.823Z,13.33
2019-03-27T01:39:50.277Z,13.90
2019-03-27T01:42:21.190Z,14.37
2019-03-27T01:44:51.618Z,13.30
2019-03-27T01:47:22.420Z,13.67
2019-03-27T01:49:52.817Z,13.23
2019-03-27T01:52:23.282Z,12.80
2019-03-27T01:54:53.931Z,13.17
2019-03-27T01:57:24.296Z,13.60
2019-03-27T01:59:54.876Z,13.87
2019-03-27T02:02:25.555Z,12.77
2019-03-27T02:04:56.014Z,13.20
2019-03-27T02:07:26.277Z,13.23
2019-03-27T02:09:57.891Z,13.80
2019-03-27T02:12:28.285Z,14.13
2019-03-27T02:14:58.855Z,14.67
2019-03-27T02:17:29.115Z,14.10
2019-03-27T02:19:59.483Z,13.37
2019-03-27T02:22:29.822Z,14.50
2019-03-27T02:25:00.677Z,13.67
2019-03-27T02:27:31.049Z,14.80
2019-03-27T02:30:01.496Z,14.70
2019-03-27T02:32:32.114Z,13.43
2019-03-27T02:35:02.872Z,15.27
2019-03-27T02:37:33.560Z,15.03
2019-03-27T02:40:04.029Z,16.67
2019-03-27T02:42:34.318Z,17.47
2019-03-27T02:45:05.079Z,16.60
2019-03-27T02:47:35.978Z,17.23
2019-03-27T02:50:06.745Z,15.90
2019-03-27T02:52:37.170Z,16.87
2019-03-27T02:55:08.027Z,16.00
2019-03-27T02:57:38.437Z,16.30
2019-03-27T03:00:10.246Z,16.30
2019-03-27T03:02:41.034Z,17.40
2019-03-27T03:05:11.481Z,17.60
2019-03-27T03:07:42.540Z,17.17
2019-03-27T03:10:13.649Z,18.47
2019-03-27T03:12:44.228Z,19.07
2019-03-27T03:15:19.997Z,17.97
2019-03-27T03:17:50.408Z,19.77
2019-03-27T03:20:21.374Z,20.07
2019-03-27T03:22:52.232Z,20.00
2019-03-27T03:25:22.740Z,21.40
2019-03-27T03:27:53.435Z,20.57
2019-03-27T03:30:24.222Z,19.20
2019-03-27T03:32:54.640Z,21.50
2019-03-27T03:35:25.449Z,18.30
2019-03-27T03:37:56.194Z,19.13
2019-03-27T03:40:26.633Z,19.80
2019-03-27T03:42:57.020Z,19.97
2019-03-27T03:45:27.614Z,19.00
2019-03-27T03:47:58.124Z,19.40
2019-03-27T03:50:39.060Z,20.37
2019-03-27T03:53:11.689Z,19.30
2019-03-27T03:55:43.049Z,20.60
2019-03-27T03:58:15.532Z,22.60
2019-03-27T04:00:47.507Z,22.17
2019-03-27T04:03:18.191Z,21.90
2019-03-27T04:05:48.566Z,23.20
2019-03-27T04:08:19.322Z,21.77
2019-03-27T04:10:49.849Z,22.20
2019-03-27T04:13:20.693Z,22.60
2019-03-27T04:15:51.157Z,23.00
2019-03-27T04:18:22.214Z,24.43
2019-03-27T04:20:53.882Z,23.80
2019-03-27T04:23:25.040Z,20.83
2019-03-27T04:26:08.835Z,21.30
2019-03-27T04:28:27.624Z,21.87
2019-03-27T04:30:57.898Z,21.17
2019-03-27T04:33:28.241Z,20.53
2019-03-27T04:35:59.020Z,19.57
2019-03-27T04:38:29.586Z,20.00
2019-03-27T04:41:00.154Z,19.50
2019-03-27T04:43:30.663Z,18.57
2019-03-27T04:46:01.513Z,18.83
2019-03-27T04:48:31.876Z,19.07
2019-03-27T04:51:02.216Z,19.60
2019-03-27T04:53:33.169Z,19.20
2019-03-27T04:56:03.792Z,20.07
2019-03-27T04:58:34.746Z,20.20
2019-03-27T05:01:05.504Z,20.83
2019-03-27T05:03:36.286Z,21.03
2019-03-27T05:06:06.804Z,18.40
2019-03-27T05:08:37.282Z,20.17
2019-03-27T05:11:07.660Z,22.00
2019-03-27T05:13:38.286Z,19.67
2019-03-27T05:16:08.708Z,22.30
2019-03-27T05:18:39.416Z,23.53
2019-03-27T05:21:09.857Z,19.00
2019-03-27T05:23:40.292Z,19.57
2019-03-27T05:26:10.934Z,19.40
2019-03-27T05:28:41.557Z,22.50
2019-03-27T05:31:11.778Z,23.27
2019-03-27T05:33:43.527Z,20.90
2019-03-27T05:36:14.134Z,21.90
2019-03-27T05:38:44.594Z,22.40
2019-03-27T05:41:15.060Z,22.73
2019-03-27T05:43:46.072Z,22.63
2019-03-27T05:46:17.008Z,24.27
2019-03-27T05:48:47.747Z,22.40
2019-03-27T05:51:18.215Z,22.80
2019-03-27T05:53:48.884Z,23.07
2019-03-27T05:56:19.699Z,20.90
2019-03-27T05:58:50.060Z,24.83
2019-03-27T06:01:20.352Z,21.13
2019-03-27T06:03:51.121Z,22.73
2019-03-27T06:06:21.522Z,22.33
2019-03-27T06:08:52.250Z,23.90
2019-03-27T06:11:23.172Z,21.23
2019-03-27T06:13:53.692Z,20.50
2019-03-27T06:16:24.152Z,22.13
2019-03-27T06:18:54.559Z,21.50
2019-03-27T06:21:25.602Z,21.30
2019-03-27T06:23:56.190Z,21.30
2019-03-27T06:26:27.161Z,22.20
2019-03-27T06:28:58.721Z,21.40
2019-03-27T06:31:29.759Z,23.87
2019-03-27T06:34:00.916Z,21.40
2019-03-27T06:36:31.661Z,22.77
2019-03-27T06:39:02.480Z,20.73
2019-03-27T06:41:33.288Z,20.57
2019-03-27T06:44:03.684Z,20.43
2019-03-27T06:46:34.779Z,22.03
2019-03-27T06:49:06.638Z,19.90
2019-03-27T06:51:40.404Z,22.73
2019-03-27T06:54:09.836Z,20.83
2019-03-27T06:56:40.287Z,19.53
2019-03-27T06:59:11.024Z,19.63
2019-03-27T07:01:41.707Z,19.83
2019-03-27T07:04:12.423Z,21.80
2019-03-27T07:06:42.891Z,18.33
2019-03-27T07:09:14.021Z,17.60
2019-03-27T07:11:45.112Z,19.80
2019-03-27T07:16:44.723Z,18.87
2019-03-27T07:19:15.335Z,18.57
2019-03-27T07:21:46.614Z,19.00
2019-03-27T07:24:17.512Z,18.80
2019-03-27T07:26:48.034Z,19.13
2019-03-27T07:31:49.754Z,19.13
2019-03-27T07:36:49.516Z,19.40
2019-03-27T07:41:49.426Z,17.15
2019-03-27T07:44:20.950Z,16.65
2019-03-27T07:51:50.919Z,17.40
2019-03-27T07:54:21.869Z,19.60
2019-03-27T07:56:52.591Z,21.50
2019-03-27T07:59:22.792Z,22.40
2019-03-27T08:01:53.682Z,22.37
2019-03-27T08:04:24.427Z,22.33
2019-03-27T08:06:55.115Z,20.77
2019-03-27T08:09:25.925Z,21.70
2019-03-27T08:11:56.843Z,22.10
2019-03-27T08:14:27.558Z,19.73
2019-03-27T08:16:58.430Z,19.47
2019-03-27T08:19:27.785Z,20.97
2019-03-27T08:21:58.310Z,19.67
2019-03-27T08:24:28.934Z,16.50
2019-03-27T08:26:59.294Z,19.80
2019-03-27T08:39:27.337Z,11.57
2019-03-27T08:41:57.713Z,10.97
2019-03-27T08:44:27.936Z,11.67
2019-03-27T08:46:58.631Z,10.97
2019-03-27T08:49:29.772Z,10.43
2019-03-27T08:52:00.304Z,10.20
2019-03-27T08:54:31.198Z,10.50
2019-03-27T08:57:01.699Z,10.05
2019-03-27T09:07:01.475Z,7.30
2019-03-27T09:09:32.032Z,8.70
2019-03-27T09:12:02.555Z,7.90
2019-03-27T09:14:33.352Z,8.53
2019-03-27T09:17:03.838Z,10.73
2019-03-27T09:19:36.134Z,9.40
2019-03-27T09:22:06.503Z,9.23
2019-03-27T09:24:37.225Z,10.00
2019-03-27T09:27:07.701Z,9.30
2019-03-27T09:29:38.407Z,7.03
2019-03-27T09:42:05.702Z,4.37
2019-03-27T09:44:36.816Z,4.70
2019-03-27T09:47:07.577Z,5.25
2019-03-27T09:49:49.008Z,6.10
2019-03-27T09:52:10.282Z,6.10
2019-03-27T09:54:40.935Z,5.97
2019-03-27T09:57:11.733Z,6.40
2019-03-27T09:59:42.711Z,7.00
2019-03-27T10:02:13.252Z,7.60
2019-03-27T10:04:43.983Z,6.40
2019-03-27T10:07:14.658Z,6.40
2019-03-27T10:09:45.583Z,6.40
2019-03-27T10:12:16.240Z,5.80
2019-03-27T10:14:47.709Z,6.20
2019-03-27T10:17:18.192Z,5.60
2019-03-27T10:20:02.572Z,5.30
2019-03-27T10:22:20.607Z,7.17
2019-03-27T10:24:51.076Z,5.40
2019-03-27T10:27:21.414Z,4.70
2019-03-27T10:29:52.580Z,5.20
2019-03-27T10:32:23.313Z,5.57
2019-03-27T10:34:53.744Z,4.87
2019-03-27T10:37:24.204Z,4.50
2019-03-27T10:39:54.710Z,4.80
2019-03-27T10:42:25.250Z,4.00
2019-03-27T10:44:55.632Z,4.20
2019-03-27T10:47:26.138Z,3.87
2019-03-27T10:49:56.717Z,4.10
2019-03-27T10:52:27.601Z,5.13
2019-03-27T10:54:58.410Z,4.63
2019-03-27T10:57:28.896Z,5.50
2019-03-27T10:59:59.477Z,5.35
2019-03-27T11:02:30.085Z,5.80
2019-03-27T11:05:01.037Z,5.33
2019-03-27T11:07:31.975Z,5.47
2019-03-27T11:10:02.287Z,6.20
2019-03-27T11:12:33.144Z,6.03
2019-03-27T11:15:03.691Z,6.03
2019-03-27T11:17:34.662Z,6.80
2019-03-27T11:20:05.286Z,6.90
2019-03-27T11:22:36.522Z,6.57
2019-03-27T11:25:07.310Z,6.73
2019-03-27T11:27:37.812Z,6.50
2019-03-27T11:32:37.842Z,5.95
2019-03-27T11:35:08.676Z,6.30
2019-03-27T11:40:08.565Z,6.80
2019-03-27T11:50:09.800Z,4.60
2019-03-27T12:07:36.117Z,5.40
2019-03-27T12:10:07.497Z,4.95
2019-03-27T15:49:09.228Z,6.65
2019-03-27T16:43:54.058Z,6.45
2019-03-27T16:48:53.658Z,6.25
2019-03-27T16:51:23.864Z,6.10
2019-03-27T16:53:54.483Z,6.20
2019-03-27T16:56:24.884Z,5.80
2019-03-27T16:58:55.517Z,5.83
2019-03-27T17:01:25.846Z,5.30
2019-03-27T17:03:55.306Z,5.97
2019-03-27T17:06:25.657Z,6.90
2019-03-27T17:08:56.101Z,7.10
2019-03-27T17:11:26.953Z,6.63
2019-03-27T17:16:26.794Z,7.70
2019-03-27T17:21:26.518Z,6.50
2019-03-27T17:26:26.076Z,8.00
2019-03-27T17:28:56.424Z,7.80
2019-03-27T17:31:27.181Z,8.57
2019-03-27T17:33:57.545Z,8.13
2019-03-27T17:36:28.327Z,7.40
2019-03-27T17:38:58.596Z,7.77
2019-03-27T17:41:28.956Z,7.80
2019-03-27T17:43:59.156Z,7.47
2019-03-27T17:46:28.519Z,6.90
2019-03-27T17:48:58.225Z,7.10
2019-03-27T17:51:27.615Z,8.37
2019-03-27T17:53:57.193Z,7.97
2019-03-27T17:56:26.551Z,7.43
2019-03-27T17:58:56.140Z,8.57
2019-03-27T18:01:25.488Z,8.53
2019-03-27T18:03:55.164Z,8.27
2019-03-27T18:06:24.857Z,8.53
2019-03-27T18:08:54.049Z,7.30
2019-03-27T18:11:23.439Z,7.23
2019-03-27T18:13:52.724Z,7.67
2019-03-27T18:16:22.069Z,7.63
2019-03-27T18:18:51.442Z,8.33
2019-03-27T18:21:21.455Z,8.23
2019-03-27T18:23:50.981Z,8.47
2019-03-27T18:26:20.319Z,8.67
2019-03-27T18:28:49.701Z,8.33
2019-03-27T18:31:19.138Z,8.20
2019-03-27T18:33:48.567Z,8.00
2019-03-27T18:36:17.886Z,8.60
2019-03-27T18:38:47.372Z,8.00
2019-03-27T18:41:16.772Z,8.13
2019-03-27T18:43:45.938Z,7.97
2019-03-27T18:46:15.599Z,9.00
2019-03-27T18:48:44.965Z,9.47
2019-03-27T18:51:14.367Z,7.70
2019-03-27T18:53:44.072Z,9.00
2019-03-27T18:56:13.392Z,8.03
2019-03-27T18:58:42.596Z,9.30
2019-03-27T19:01:11.887Z,8.27
2019-03-27T19:03:41.587Z,9.00
2019-03-27T19:06:11.460Z,8.23
2019-03-27T19:08:40.858Z,9.27
2019-03-27T19:11:10.219Z,10.37
2019-03-27T19:13:40.006Z,10.17
2019-03-27T19:16:09.508Z,10.33
2019-03-27T19:18:38.907Z,9.57
2019-03-27T19:21:08.928Z,9.97
2019-03-27T19:23:38.233Z,9.53
2019-03-27T19:26:07.623Z,9.67
2019-03-27T19:28:36.962Z,10.37
2019-03-27T19:31:06.319Z,8.80
2019-03-27T19:33:36.136Z,8.20
2019-03-27T19:36:05.789Z,8.50
2019-03-27T19:38:35.475Z,9.20
2019-03-27T19:41:05.283Z,10.03
2019-03-27T19:43:34.985Z,9.50
2019-03-27T19:46:05.016Z,10.33
2019-03-27T19:48:34.456Z,11.17
2019-03-27T19:51:03.800Z,10.27
2019-03-27T19:53:33.456Z,10.33
2019-03-27T19:56:02.901Z,9.60
2019-03-27T19:58:32.223Z,10.37
2019-03-27T20:01:02.139Z,10.57
2019-03-27T20:03:34.491Z,10.67
2019-03-27T20:06:03.277Z,10.40
2019-03-27T20:08:33.112Z,11.57
2019-03-27T20:11:02.790Z,11.30
2019-03-27T20:13:32.107Z,10.73
2019-03-27T20:16:01.318Z,11.73
2019-03-27T20:18:31.020Z,11.90
2019-03-27T20:21:00.728Z,11.60
2019-03-27T20:23:30.434Z,12.30
2019-03-27T20:26:00.262Z,11.13
2019-03-27T20:28:29.823Z,12.03
2019-03-27T20:30:59.933Z,10.70
2019-03-27T20:33:29.784Z,11.70
2019-03-27T20:35:59.186Z,12.23
2019-03-27T20:38:28.349Z,10.83
2019-03-27T20:40:58.116Z,11.67
2019-03-27T20:43:27.463Z,12.67
2019-03-27T20:45:57.066Z,11.67
2019-03-27T20:48:27.032Z,12.30
2019-03-27T20:50:56.904Z,13.37
2019-03-27T20:53:26.636Z,12.40
2019-03-27T20:55:56.015Z,12.67
2019-03-27T20:58:25.317Z,11.80
2019-03-27T21:00:55.059Z,13.30
2019-03-27T21:03:24.550Z,13.13
2019-03-27T21:05:54.706Z,13.13
2019-03-27T21:08:24.267Z,12.43
2019-03-27T21:10:54.318Z,14.27
2019-03-27T21:13:23.575Z,14.90
2019-03-27T21:15:53.323Z,14.13
2019-03-27T21:18:22.795Z,13.33
2019-03-27T21:20:52.088Z,13.60
2019-03-27T21:23:21.361Z,13.00
2019-03-27T21:25:51.204Z,12.83
2019-03-27T21:28:20.675Z,14.03
2019-03-27T21:30:51.433Z,13.87
2019-03-27T21:33:21.014Z,14.63
2019-03-27T21:35:50.423Z,14.10
2019-03-27T21:38:20.036Z,13.93
2019-03-27T21:40:50.083Z,13.70
2019-03-27T21:43:19.587Z,14.57
2019-03-27T21:45:49.477Z,14.00
2019-03-27T21:48:19.174Z,14.90
2019-03-27T21:50:49.316Z,15.13
2019-03-27T21:53:19.038Z,14.43
2019-03-27T21:55:48.850Z,14.33
2019-03-27T21:58:18.369Z,14.90
2019-03-27T22:00:47.959Z,14.17
2019-03-27T22:03:17.901Z,14.30
2019-03-27T22:05:47.249Z,13.27
2019-03-27T22:08:17.363Z,15.17
2019-03-27T22:10:46.674Z,15.30
2019-03-27T22:13:16.041Z,15.37
2019-03-27T22:15:45.855Z,15.23
2019-03-27T22:18:15.365Z,14.30
2019-03-27T22:20:44.686Z,13.83
2019-03-27T22:23:14.052Z,15.73
2019-03-27T22:25:44.102Z,15.77
2019-03-27T22:28:15.299Z,15.93
2019-03-27T22:30:44.427Z,14.60
2019-03-27T22:33:13.701Z,14.70
2019-03-27T22:35:43.793Z,16.30
2019-03-27T22:38:13.116Z,14.83
2019-03-27T22:40:42.530Z,14.40
2019-03-27T22:43:12.112Z,15.90
2019-03-27T22:45:41.808Z,14.50
2019-03-27T22:48:11.273Z,16.17
2019-03-27T22:50:40.461Z,17.03
2019-03-27T22:53:10.031Z,15.73
2019-03-27T22:55:49.649Z,15.90
2019-03-27T22:58:12.972Z,16.20
2019-03-27T23:00:49.566Z,15.70
2019-03-27T23:03:19.037Z,15.57
2019-03-27T23:05:48.417Z,15.40
2019-03-27T23:08:17.638Z,16.67
2019-03-27T23:10:47.644Z,16.40
2019-03-27T23:13:17.813Z,15.83
2019-03-27T23:15:47.672Z,14.60
2019-03-27T23:18:16.972Z,15.53
2019-03-27T23:20:46.251Z,15.70
2019-03-27T23:23:15.663Z,15.87
2019-03-27T23:25:45.693Z,16.57
2019-03-27T23:28:15.626Z,14.90
2019-03-27T23:30:45.204Z,16.23
2019-03-27T23:33:15.221Z,17.50
2019-03-27T23:35:44.810Z,15.90
2019-03-27T23:38:14.249Z,17.73
2019-03-27T23:40:43.980Z,15.90
2019-03-27T23:43:13.459Z,16.30
2019-03-27T23:45:43.549Z,17.43
2019-03-27T23:48:13.592Z,16.57
2019-03-27T23:50:42.951Z,16.80
2019-03-27T23:53:12.205Z,15.60
2019-03-27T23:55:41.965Z,15.73
2019-03-27T23:58:11.601Z,14.97
